createdAt,value
2023-03-12T00:01:59.735Z,55.80
2023-03-12T00:04:27.005Z,56.30
2023-03-12T00:06:53.602Z,55.10
2023-03-12T00:09:20.383Z,56.50
2023-03-12T00:11:47.054Z,57.10
2023-03-12T00:14:13.687Z,57.10
2023-03-12T00:16:40.472Z,56.30
2023-03-12T00:19:07.255Z,57.00
2023-03-12T00:21:33.799Z,57.70
2023-03-12T00:24:00.440Z,58.00
2023-03-12T00:26:27.006Z,57.00
2023-03-12T00:28:53.786Z,57.00
2023-03-12T00:31:22.458Z,57.80
2023-03-12T00:33:51.756Z,57.30
2023-03-12T00:36:19.213Z,56.60
2023-03-12T00:38:45.883Z,54.90
2023-03-12T00:41:12.593Z,54.70
2023-03-12T00:43:39.224Z,53.90
2023-03-12T00:46:05.810Z,53.60
2023-03-12T00:48:32.375Z,52.80
2023-03-12T00:50:58.970Z,53.50
2023-03-12T00:53:25.569Z,55.70
2023-03-12T00:55:52.246Z,56.10
2023-03-12T00:58:18.823Z,56.00
2023-03-12T01:00:45.637Z,56.60
2023-03-12T01:03:12.329Z,58.40
2023-03-12T01:05:40.735Z,58.60
2023-03-12T01:08:08.000Z,59.60
2023-03-12T01:10:35.234Z,60.20
2023-03-12T01:13:01.852Z,60.10
2023-03-12T01:15:28.920Z,59.20
2023-03-12T01:17:55.468Z,58.80
2023-03-12T01:20:23.086Z,58.80
2023-03-12T01:22:49.760Z,58.50
2023-03-12T01:25:16.356Z,58.80
2023-03-12T01:27:42.978Z,59.70
2023-03-12T01:30:10.337Z,61.30
2023-03-12T01:32:37.469Z,61.30
2023-03-12T01:35:04.260Z,61.30
2023-03-12T01:37:32.057Z,61.30
2023-03-12T01:39:58.806Z,61.30
2023-03-12T01:42:25.491Z,63.20
2023-03-12T01:44:53.533Z,64.60
2023-03-12T01:47:20.597Z,64.80
2023-03-12T01:49:48.121Z,64.00
2023-03-12T01:52:16.544Z,64.00
2023-03-12T01:54:45.468Z,64.30
2023-03-12T01:57:16.041Z,64.40
2023-03-12T01:59:45.831Z,64.60
2023-03-12T02:02:13.859Z,64.40
2023-03-12T02:04:40.975Z,64.20
2023-03-12T02:07:08.605Z,64.00
2023-03-12T02:09:37.339Z,63.60
2023-03-12T02:12:04.464Z,63.00
2023-03-12T02:14:31.319Z,62.20
2023-03-12T02:16:57.915Z,61.80
2023-03-12T02:19:34.330Z,61.40
2023-03-12T02:22:01.631Z,61.30
2023-03-12T02:24:33.513Z,61.30
2023-03-12T02:27:01.170Z,63.80
2023-03-12T02:29:30.303Z,65.10
2023-03-12T02:31:59.654Z,66.10
2023-03-12T02:34:26.270Z,66.70
2023-03-12T02:36:52.841Z,66.60
2023-03-12T02:39:19.643Z,66.70
2023-03-12T02:41:48.662Z,66.40
2023-03-12T02:44:20.585Z,66.20
2023-03-12T02:46:48.941Z,66.00
2023-03-12T02:49:15.904Z,65.80
2023-03-12T02:51:43.266Z,66.20
2023-03-12T02:54:10.766Z,65.90
2023-03-12T02:56:37.503Z,65.90
2023-03-12T02:59:04.589Z,66.30
2023-03-12T03:01:34.254Z,66.00
2023-03-12T03:04:04.914Z,66.20
2023-03-12T03:06:32.514Z,65.70
2023-03-12T03:08:59.318Z,66.00
2023-03-12T03:11:26.248Z,65.30
2023-03-12T03:13:52.985Z,65.10
2023-03-12T03:16:19.766Z,64.40
2023-03-12T03:18:46.700Z,64.20
2023-03-12T03:21:16.571Z,64.20
2023-03-12T03:23:44.450Z,65.10
2023-03-12T03:26:11.029Z,65.40
2023-03-12T03:28:38.090Z,65.10
2023-03-12T03:31:05.187Z,65.10
2023-03-12T03:33:33.161Z,65.80
2023-03-12T03:36:00.169Z,65.80
2023-03-12T03:38:27.257Z,65.80
2023-03-12T03:40:54.223Z,65.60
2023-03-12T03:43:21.043Z,65.80
2023-03-12T03:45:47.738Z,66.20
2023-03-12T03:48:14.645Z,65.20
2023-03-12T03:50:41.544Z,65.30
2023-03-12T03:53:08.734Z,66.00
2023-03-12T03:55:39.192Z,65.60
2023-03-12T03:58:06.022Z,64.70
2023-03-12T04:00:32.814Z,64.10
2023-03-12T04:02:59.758Z,64.50
2023-03-12T04:05:26.538Z,65.20
2023-03-12T04:07:53.540Z,64.90
2023-03-12T04:10:20.663Z,65.40
2023-03-12T04:12:47.344Z,66.00
2023-03-12T04:15:13.898Z,65.90
2023-03-12T04:17:40.668Z,65.90
2023-03-12T04:20:09.347Z,65.60
2023-03-12T04:22:35.956Z,65.20
2023-03-12T04:25:02.960Z,65.20
2023-03-12T04:27:29.698Z,65.00
2023-03-12T04:29:56.233Z,65.10
2023-03-12T04:32:22.891Z,64.30
2023-03-12T04:34:49.588Z,64.20
2023-03-12T04:37:16.516Z,64.70
2023-03-12T04:39:43.921Z,64.80
2023-03-12T04:42:10.856Z,64.90
2023-03-12T04:44:37.756Z,65.20
2023-03-12T04:47:04.655Z,63.50
2023-03-12T04:49:31.290Z,63.60
2023-03-12T04:51:57.862Z,63.00
2023-03-12T04:54:24.463Z,62.70
2023-03-12T04:56:51.066Z,61.90
2023-03-12T04:59:17.613Z,61.90
2023-03-12T05:01:44.195Z,62.00
2023-03-12T05:04:10.945Z,62.50
2023-03-12T05:06:37.526Z,62.90
2023-03-12T05:09:04.152Z,62.80
2023-03-12T05:11:31.108Z,62.70
2023-03-12T05:13:57.696Z,61.90
2023-03-12T05:16:24.463Z,61.90
2023-03-12T05:18:51.170Z,61.90
2023-03-12T05:21:19.646Z,62.00
2023-03-12T05:23:46.704Z,62.00
2023-03-12T05:26:17.789Z,62.00
2023-03-12T05:28:44.591Z,61.80
2023-03-12T05:31:11.654Z,61.50
2023-03-12T05:33:38.611Z,61.90
2023-03-12T05:36:05.411Z,61.90
2023-03-12T05:38:32.072Z,61.90
2023-03-12T05:40:59.419Z,62.00
2023-03-12T05:43:26.450Z,61.70
2023-03-12T05:45:53.433Z,61.90
2023-03-12T05:48:20.125Z,62.00
2023-03-12T05:50:46.713Z,61.90
2023-03-12T05:53:13.367Z,61.00
2023-03-12T05:55:40.055Z,61.50
2023-03-12T05:58:07.146Z,60.50
2023-03-12T06:00:38.460Z,60.40
2023-03-12T06:03:05.684Z,60.80
2023-03-12T06:05:33.029Z,60.00
2023-03-12T06:07:59.636Z,59.50
2023-03-12T06:10:26.234Z,58.60
2023-03-12T06:12:52.742Z,56.60
2023-03-12T06:15:19.341Z,56.30
2023-03-12T06:17:45.906Z,53.90
2023-03-12T06:20:12.800Z,54.20
2023-03-12T06:22:39.414Z,52.70
2023-03-12T06:25:06.271Z,51.90
2023-03-12T06:27:32.935Z,52.70
2023-03-12T06:29:59.569Z,50.00
2023-03-12T06:32:26.219Z,49.50
2023-03-12T06:34:52.994Z,47.70
2023-03-12T06:37:19.704Z,44.80
2023-03-12T06:39:46.295Z,45.60
2023-03-12T06:42:14.664Z,42.90
2023-03-12T06:44:41.387Z,40.70
2023-03-12T06:47:08.015Z,39.60
2023-03-12T06:49:36.492Z,39.30
2023-03-12T06:52:03.304Z,32.70
2023-03-12T06:54:30.011Z,32.90
2023-03-12T06:56:56.583Z,29.60
2023-03-12T06:59:23.122Z,24.90
2023-03-12T07:01:49.796Z,24.30
2023-03-12T07:04:16.451Z,24.00
2023-03-12T07:06:43.014Z,22.60
2023-03-12T07:09:09.987Z,24.00
2023-03-12T07:11:36.567Z,22.00
2023-03-12T07:14:03.209Z,21.30
2023-03-12T07:16:30.952Z,20.30
2023-03-12T07:18:57.577Z,18.30
2023-03-12T07:21:24.151Z,18.40
2023-03-12T07:23:50.866Z,18.40
2023-03-12T07:26:17.714Z,15.60
2023-03-12T07:28:44.436Z,15.60
2023-03-12T07:31:11.064Z,15.60
2023-03-12T07:33:38.012Z,12.80
2023-03-12T07:36:04.982Z,12.50
2023-03-12T07:38:31.790Z,11.80
2023-03-12T07:40:58.937Z,11.20
2023-03-12T07:43:25.712Z,10.80
2023-03-12T07:45:52.319Z,10.50
2023-03-12T07:48:20.098Z,9.40
2023-03-12T07:50:47.606Z,10.80
2023-03-12T07:53:14.171Z,11.10
2023-03-12T07:55:40.831Z,12.10
2023-03-12T07:58:07.576Z,11.00
2023-03-12T08:00:34.383Z,12.60
2023-03-12T08:03:01.225Z,12.90
2023-03-12T08:05:28.047Z,12.70
2023-03-12T08:07:54.626Z,12.90
2023-03-12T08:10:21.725Z,13.00
2023-03-12T08:12:49.108Z,13.50
2023-03-12T08:15:15.762Z,12.00
2023-03-12T08:17:42.301Z,7.30
2023-03-12T08:20:10.166Z,2.60
2023-03-12T08:22:37.704Z,1.00
2023-03-12T08:25:04.952Z,1.00
2023-03-12T08:27:31.810Z,1.00
2023-03-12T08:29:58.401Z,1.00
2023-03-12T08:32:25.194Z,1.00
2023-03-12T08:34:51.853Z,1.00
2023-03-12T08:37:18.906Z,1.00
2023-03-12T08:39:45.574Z,1.00
2023-03-12T08:42:12.275Z,1.00
2023-03-12T08:44:38.935Z,1.00
2023-03-12T08:47:05.591Z,1.00
2023-03-12T08:49:32.225Z,1.00
2023-03-12T08:51:58.806Z,1.00
2023-03-12T08:54:25.345Z,1.00
2023-03-12T08:56:52.510Z,1.00
2023-03-12T08:59:20.619Z,1.00
2023-03-12T09:01:47.481Z,1.00
2023-03-12T09:04:14.121Z,1.00
2023-03-12T09:06:41.096Z,1.00
2023-03-12T09:09:08.998Z,1.00
2023-03-12T09:11:36.887Z,1.00
2023-03-12T09:14:39.459Z,1.00
2023-03-12T09:16:50.186Z,1.00
2023-03-12T09:19:16.878Z,1.00
2023-03-12T09:21:43.569Z,1.00
2023-03-12T09:24:11.201Z,1.00
2023-03-12T09:26:37.804Z,1.00
2023-03-12T09:29:04.604Z,1.00
2023-03-12T09:31:31.298Z,1.00
2023-03-12T09:33:57.865Z,1.00
2023-03-12T09:36:24.383Z,1.00
2023-03-12T09:38:50.920Z,1.00
2023-03-12T09:41:22.158Z,1.00
2023-03-12T09:43:51.806Z,1.00
2023-03-12T09:46:23.262Z,1.00
2023-03-12T09:48:50.399Z,1.00
2023-03-12T09:51:20.136Z,1.00
2023-03-12T09:53:52.810Z,1.00
2023-03-12T09:56:20.708Z,1.00
2023-03-12T09:58:48.421Z,1.00
2023-03-12T10:01:27.401Z,1.00
2023-03-12T10:04:06.346Z,1.00
2023-03-12T10:06:51.770Z,1.00
2023-03-12T10:09:18.321Z,1.00
2023-03-12T10:11:53.806Z,1.00
2023-03-12T10:14:29.600Z,1.00
2023-03-12T10:17:03.311Z,1.00
2023-03-12T10:19:33.078Z,1.00
2023-03-12T10:22:15.731Z,1.00
2023-03-12T10:24:52.170Z,1.00
2023-03-12T10:27:18.925Z,1.00
2023-03-12T10:29:47.861Z,1.00
2023-03-12T10:32:20.885Z,1.00
2023-03-12T10:34:47.583Z,1.00
2023-03-12T10:37:17.146Z,1.00
2023-03-12T10:39:43.924Z,1.00
2023-03-12T10:42:20.838Z,1.00
2023-03-12T10:44:49.093Z,1.00
2023-03-12T10:47:37.411Z,1.00
2023-03-12T10:50:16.223Z,1.00
2023-03-12T10:52:43.253Z,1.00
2023-03-12T10:55:20.607Z,1.00
2023-03-12T10:57:47.652Z,1.00
2023-03-12T11:00:22.691Z,1.00
2023-03-12T11:02:58.683Z,1.00
2023-03-12T11:05:30.383Z,1.10
2023-03-12T11:07:57.668Z,2.70
2023-03-12T11:10:25.755Z,2.40
2023-03-12T11:12:57.158Z,4.20
2023-03-12T11:15:32.087Z,4.80
2023-03-12T11:18:18.910Z,4.80
2023-03-12T11:20:45.674Z,6.10
2023-03-12T11:23:16.249Z,6.10
2023-03-12T11:25:42.860Z,4.90
2023-03-12T11:28:17.967Z,6.00
2023-03-12T11:30:45.141Z,6.40
2023-03-12T11:33:12.407Z,8.50
2023-03-12T11:36:15.557Z,8.60
2023-03-12T11:39:02.417Z,9.50
2023-03-12T11:41:40.063Z,9.60
2023-03-12T11:44:15.467Z,10.40
2023-03-12T11:46:51.760Z,11.90
2023-03-12T11:49:27.387Z,12.20
2023-03-12T11:52:02.381Z,12.70
2023-03-12T11:54:45.297Z,14.90
2023-03-12T11:57:16.685Z,15.00
2023-03-12T11:59:55.408Z,16.00
2023-03-12T12:02:22.037Z,16.80
2023-03-12T12:05:07.541Z,18.50
2023-03-12T12:07:37.172Z,18.60
2023-03-12T12:10:11.840Z,20.60
2023-03-12T12:12:57.481Z,20.10
2023-03-12T12:15:31.342Z,19.90
2023-03-12T12:18:07.004Z,22.40
2023-03-12T12:20:45.415Z,23.20
2023-03-12T12:23:30.850Z,24.80
2023-03-12T12:26:07.814Z,27.70
2023-03-12T12:28:34.315Z,30.80
2023-03-12T12:31:19.849Z,34.10
2023-03-12T12:33:55.456Z,37.40
2023-03-12T12:36:24.183Z,38.10
2023-03-12T12:38:56.081Z,41.40
2023-03-12T12:41:26.603Z,39.00
2023-03-12T12:43:56.034Z,42.20
2023-03-12T12:46:28.107Z,42.50
2023-03-12T12:48:55.791Z,41.70
2023-03-12T12:51:26.984Z,42.30
2023-03-12T12:54:12.916Z,42.20
2023-03-12T12:56:51.042Z,43.10
2023-03-12T12:59:23.185Z,44.30
2023-03-12T13:01:50.907Z,46.30
2023-03-12T13:04:37.235Z,46.10
2023-03-12T13:07:12.660Z,47.40
2023-03-12T13:09:43.850Z,49.10
2023-03-12T13:12:30.810Z,50.80
2023-03-12T13:14:58.040Z,51.30
2023-03-12T13:17:27.195Z,52.50
2023-03-12T13:20:01.500Z,55.50
2023-03-12T13:22:35.549Z,56.60
2023-03-12T13:25:05.236Z,55.20
2023-03-12T13:27:36.579Z,56.40
2023-03-12T13:30:21.778Z,59.60
2023-03-12T13:32:48.332Z,57.40
2023-03-12T13:35:28.796Z,56.40
2023-03-12T13:37:55.331Z,56.20
2023-03-12T13:40:33.936Z,58.80
2023-03-12T13:43:11.698Z,59.80
2023-03-12T13:45:47.655Z,63.40
2023-03-12T13:48:16.131Z,64.00
2023-03-12T13:50:51.843Z,64.70
2023-03-12T13:53:47.770Z,68.30
2023-03-12T13:56:16.924Z,68.20
2023-03-12T13:59:03.232Z,67.30
2023-03-12T14:01:37.542Z,92.20
2023-03-12T14:04:06.506Z,47.30
2023-03-12T14:06:37.097Z,24.20
2023-03-12T14:09:03.639Z,28.80
2023-03-12T14:11:49.040Z,36.50
2023-03-12T14:14:15.575Z,44.30
2023-03-12T14:16:43.168Z,50.40
2023-03-12T14:19:12.223Z,52.10
2023-03-12T14:21:40.107Z,56.30
2023-03-12T14:24:08.493Z,57.90
2023-03-12T14:26:36.096Z,60.60
2023-03-12T14:29:07.487Z,62.80
2023-03-12T14:31:35.215Z,64.60
2023-03-12T14:34:05.754Z,65.40
2023-03-12T14:36:37.961Z,63.10
2023-03-12T14:39:21.566Z,61.40
2023-03-12T14:41:51.973Z,60.90
2023-03-12T14:44:23.158Z,58.10
2023-03-12T14:46:56.919Z,55.20
2023-03-12T14:49:23.627Z,53.30
2023-03-12T14:51:50.248Z,50.20
2023-03-12T14:54:21.152Z,50.30
2023-03-12T14:56:47.843Z,48.90
2023-03-12T14:59:25.958Z,43.20
2023-03-12T15:01:58.933Z,80.50
2023-03-12T15:04:25.825Z,25.80
2023-03-12T15:06:54.360Z,26.30
2023-03-12T15:09:25.775Z,28.80
2023-03-12T15:11:55.107Z,29.60
2023-03-12T15:14:22.940Z,32.20
2023-03-12T15:16:50.740Z,36.20
2023-03-12T15:19:20.161Z,39.90
2023-03-12T15:21:46.879Z,43.60
2023-03-12T15:24:13.927Z,46.00
2023-03-12T15:26:41.394Z,47.30
2023-03-12T15:29:13.956Z,48.90
2023-03-12T15:31:47.961Z,49.70
2023-03-12T15:34:26.420Z,50.50
2023-03-12T15:36:54.850Z,48.20
2023-03-12T15:39:41.729Z,48.00
2023-03-12T15:42:09.330Z,47.10
2023-03-12T15:44:56.829Z,46.40
2023-03-12T15:47:25.104Z,46.00
2023-03-12T15:49:53.385Z,46.00
2023-03-12T15:52:19.940Z,46.30
2023-03-12T15:55:05.212Z,47.00
2023-03-12T15:57:35.160Z,47.10
2023-03-12T16:00:12.118Z,46.90
2023-03-12T16:02:40.037Z,45.30
2023-03-12T16:05:08.134Z,44.50
2023-03-12T16:07:34.760Z,44.70
2023-03-12T16:10:01.326Z,43.10
2023-03-12T16:12:27.892Z,43.70
2023-03-12T16:14:55.935Z,42.50
2023-03-12T16:17:22.941Z,42.60
2023-03-12T16:19:49.786Z,43.90
2023-03-12T16:22:17.600Z,43.70
2023-03-12T16:24:44.238Z,44.30
2023-03-12T16:27:17.933Z,46.40
2023-03-12T16:29:47.376Z,47.20
2023-03-12T16:32:15.310Z,48.40
2023-03-12T16:34:42.136Z,49.20
2023-03-12T16:37:12.265Z,50.30
2023-03-12T16:39:39.110Z,50.20
2023-03-12T16:42:07.117Z,50.20
2023-03-12T16:44:34.789Z,50.20
2023-03-12T16:47:01.457Z,50.20
2023-03-12T16:49:28.202Z,50.10
2023-03-12T16:51:54.753Z,50.10
2023-03-12T16:54:21.320Z,50.10
2023-03-12T16:56:48.453Z,50.10
2023-03-12T16:59:22.196Z,50.00
2023-03-12T17:01:48.771Z,50.40
2023-03-12T17:04:15.405Z,52.00
2023-03-12T17:06:42.068Z,52.50
2023-03-12T17:09:08.763Z,53.80
2023-03-12T17:11:37.755Z,55.00
2023-03-12T17:14:10.217Z,56.40
2023-03-12T17:16:36.797Z,57.20
2023-03-12T17:19:03.403Z,58.50
2023-03-12T17:21:30.002Z,60.10
2023-03-12T17:23:56.799Z,60.90
2023-03-12T17:26:23.430Z,61.00
2023-03-12T17:28:50.143Z,61.80
2023-03-12T17:31:16.842Z,63.10
2023-03-12T17:33:44.390Z,63.70
2023-03-12T17:36:10.968Z,64.90
2023-03-12T17:38:37.865Z,66.10
2023-03-12T17:41:09.411Z,67.60
2023-03-12T17:43:41.102Z,68.40
2023-03-12T17:46:08.573Z,69.50
2023-03-12T17:48:35.654Z,69.50
2023-03-12T17:51:10.049Z,69.50
2023-03-12T17:53:39.464Z,69.50
2023-03-12T17:56:06.696Z,69.60
2023-03-12T17:58:33.326Z,71.10
2023-03-12T18:01:00.037Z,72.20
2023-03-12T18:03:26.746Z,72.30
2023-03-12T18:05:53.324Z,72.50
2023-03-12T18:08:19.943Z,73.30
2023-03-12T18:10:47.262Z,73.80
2023-03-12T18:13:13.813Z,74.40
2023-03-12T18:15:41.189Z,75.70
2023-03-12T18:18:07.771Z,77.00
2023-03-12T18:20:39.315Z,76.50
2023-03-12T18:23:06.781Z,77.80
2023-03-12T18:25:33.712Z,77.80
2023-03-12T18:28:00.312Z,77.80
2023-03-12T18:30:28.187Z,77.80
2023-03-12T18:32:54.971Z,77.80
2023-03-12T18:35:22.766Z,77.70
2023-03-12T18:37:51.834Z,77.70
2023-03-12T18:40:18.470Z,77.70
2023-03-12T18:42:45.123Z,77.60
2023-03-12T18:45:12.142Z,77.60
2023-03-12T18:47:44.648Z,77.70
2023-03-12T18:50:11.795Z,77.60
2023-03-12T18:52:38.487Z,77.60
2023-03-12T18:55:05.374Z,77.60
2023-03-12T18:57:32.056Z,77.70
2023-03-12T18:59:59.370Z,77.60
2023-03-12T19:02:26.025Z,77.60
2023-03-12T19:04:55.484Z,77.60
2023-03-12T19:07:22.750Z,77.60
2023-03-12T19:09:49.340Z,77.60
2023-03-12T19:12:16.064Z,77.50
2023-03-12T19:14:42.710Z,76.80
2023-03-12T19:17:09.283Z,76.70
2023-03-12T19:19:35.870Z,75.60
2023-03-12T19:22:02.464Z,74.70
2023-03-12T19:24:29.028Z,73.50
2023-03-12T19:26:56.079Z,73.40
2023-03-12T19:29:22.675Z,73.00
2023-03-12T19:31:49.327Z,73.10
2023-03-12T19:34:17.250Z,72.90
2023-03-12T19:36:43.959Z,73.50
2023-03-12T19:39:20.512Z,73.20
2023-03-12T19:41:47.891Z,73.50
2023-03-12T19:44:14.462Z,74.30
2023-03-12T19:46:42.996Z,74.60
2023-03-12T19:49:09.533Z,74.70
2023-03-12T19:51:36.283Z,75.60
2023-03-12T19:54:02.982Z,75.90
2023-03-12T19:56:29.612Z,75.60
2023-03-12T19:58:56.197Z,75.30
2023-03-12T20:01:23.022Z,75.90
2023-03-12T20:03:49.937Z,76.30
2023-03-12T20:06:16.583Z,76.30
2023-03-12T20:08:44.492Z,77.50
2023-03-12T20:11:11.136Z,77.20
2023-03-12T20:13:38.755Z,77.60
2023-03-12T20:16:06.759Z,77.60
2023-03-12T20:18:33.537Z,77.60
2023-03-12T20:21:00.190Z,77.60
2023-03-12T20:23:26.788Z,77.50
2023-03-12T20:25:53.403Z,77.50
2023-03-12T20:28:19.978Z,77.50
2023-03-12T20:30:46.664Z,77.50
2023-03-12T20:33:13.678Z,77.60
2023-03-12T20:35:40.313Z,77.50
2023-03-12T20:38:06.948Z,77.50
2023-03-12T20:40:33.499Z,77.50
2023-03-12T20:43:04.636Z,77.50
2023-03-12T20:45:32.690Z,76.00
2023-03-12T20:47:59.735Z,75.70
2023-03-12T20:50:27.005Z,76.30
2023-03-12T20:52:53.601Z,75.50
2023-03-12T20:55:20.207Z,75.90
2023-03-12T20:57:46.821Z,75.70
2023-03-12T21:00:13.542Z,75.90
2023-03-12T21:02:40.153Z,76.00
2023-03-12T21:05:06.838Z,76.40
2023-03-12T21:07:33.377Z,75.60
2023-03-12T21:09:59.946Z,75.80
2023-03-12T21:12:26.508Z,76.80
2023-03-12T21:14:53.112Z,76.40
2023-03-12T21:17:19.778Z,76.10
2023-03-12T21:19:46.568Z,75.60
2023-03-12T21:22:13.221Z,75.50
2023-03-12T21:24:39.814Z,76.40
2023-03-12T21:27:06.485Z,77.10
2023-03-12T21:29:33.067Z,77.60
2023-03-12T21:31:59.655Z,77.60
2023-03-12T21:34:28.935Z,77.50
2023-03-12T21:36:56.711Z,77.60
2023-03-12T21:39:23.605Z,77.60
2023-03-12T21:41:50.130Z,77.60
2023-03-12T21:44:16.863Z,77.60
2023-03-12T21:46:43.538Z,77.60
2023-03-12T21:49:10.314Z,77.60
2023-03-12T21:51:39.412Z,77.60
2023-03-12T21:54:06.505Z,77.60
2023-03-12T21:56:33.127Z,77.90
2023-03-12T21:58:59.756Z,77.60
2023-03-12T22:01:26.452Z,77.60
2023-03-12T22:03:53.382Z,77.60
2023-03-12T22:06:20.298Z,77.50
2023-03-12T22:08:48.197Z,77.60
2023-03-12T22:11:15.393Z,77.60
2023-03-12T22:13:42.057Z,77.50
2023-03-12T22:16:09.080Z,77.50
2023-03-12T22:18:39.366Z,77.50
2023-03-12T22:21:07.516Z,77.70
2023-03-12T22:23:37.194Z,78.50
2023-03-12T22:26:05.140Z,79.00
2023-03-12T22:28:32.033Z,77.80
2023-03-12T22:30:59.529Z,78.50
2023-03-12T22:33:26.736Z,78.10
2023-03-12T22:35:53.494Z,77.40
2023-03-12T22:38:20.222Z,77.40
2023-03-12T22:40:47.888Z,77.40
2023-03-12T22:43:14.539Z,77.40
2023-03-12T22:45:41.363Z,77.60
2023-03-12T22:48:07.960Z,77.40
2023-03-12T22:50:34.609Z,77.40
2023-03-12T22:53:01.257Z,76.30
2023-03-12T22:55:27.822Z,74.70
2023-03-12T22:57:54.397Z,74.80
2023-03-12T23:00:24.018Z,73.40
2023-03-12T23:02:50.561Z,74.20
2023-03-12T23:05:17.346Z,74.20
2023-03-12T23:07:44.188Z,72.40
2023-03-12T23:10:10.990Z,71.10
2023-03-12T23:12:37.556Z,70.10
2023-03-12T23:15:04.313Z,69.00
2023-03-12T23:17:30.936Z,68.90
2023-03-12T23:19:57.517Z,68.90
2023-03-12T23:22:24.098Z,69.00
2023-03-12T23:24:50.735Z,67.20
2023-03-12T23:27:17.315Z,67.10
2023-03-12T23:29:43.920Z,67.00
2023-03-12T23:32:10.460Z,67.50
2023-03-12T23:34:37.013Z,67.60
2023-03-12T23:37:03.740Z,66.60
2023-03-12T23:39:30.845Z,67.40
2023-03-12T23:41:57.775Z,66.50
2023-03-12T23:44:24.789Z,67.00
2023-03-12T23:46:51.369Z,66.80
2023-03-12T23:49:17.911Z,66.90
2023-03-12T23:51:45.400Z,65.00
2023-03-12T23:54:12.038Z,64.50
2023-03-12T23:56:39.805Z,63.70
2023-03-12T23:59:07.970Z,63.30
